Terminal Aerodrome Forecast
Issued by NWS

Home | Current Version | Previous Version | Text Only | Print | Product List | Glossary On
Versions: 1 2 3 4 5 6 7 8 9 10 11 12 13 14 15 16 17 18 19 20
000
FTUS43 KPAH 250637 AAA
TAFCGI
TAF AMD
KCGI 250637Z 2507/2606 18012KT P6SM SCT012 BKN020
      TEMPO 2507/2509 6SM -SHRA BR BKN012
     FM251400 18012KT P6SM SCT035 BKN100
     FM251800 19012KT P6SM SCT050 BKN250
     FM260000 17010KT P6SM SCT030 BKN060=

USA.gov is the U.S. government's official web portal to all federal, state and local government web resources and services.